TimeCDT,TemperatureF,Dew PointF,Humidity,Sea Level PressureIn,VisibilityMPH,Wind Direction,Wind SpeedMPH,Gust SpeedMPH,PrecipitationIn,Events,Conditions,WindDirDegrees,DateUTC
12:53 AM,71.1,66.9,87,29.90,10.0,SE,5.8,-,N/A,,Overcast,130,2013-10-04 05:53:00
1:37 AM,71.6,66.2,83,29.95,10.0,SSE,8.1,-,N/A,,Scattered Clouds,160,2013-10-04 06:37:00
1:53 AM,71.1,66.9,87,29.91,10.0,SSE,6.9,-,N/A,,Mostly Cloudy,160,2013-10-04 06:53:00
2:53 AM,71.1,66.9,87,29.91,10.0,South,5.8,-,N/A,,Overcast,170,2013-10-04 07:53:00
3:53 AM,72.0,66.9,84,29.91,10.0,South,4.6,-,N/A,,Overcast,180,2013-10-04 08:53:00
4:53 AM,72.0,66.9,84,29.91,10.0,South,5.8,-,N/A,,Overcast,170,2013-10-04 09:53:00
5:53 AM,71.1,66.9,87,29.92,10.0,South,3.5,-,N/A,,Overcast,180,2013-10-04 10:53:00
6:34 AM,69.8,66.2,88,29.97,10.0,SSE,3.5,-,N/A,,Scattered Clouds,150,2013-10-04 11:34:00
6:53 AM,70.0,66.9,90,29.93,10.0,SSE,4.6,-,N/A,,Scattered Clouds,150,2013-10-04 11:53:00
7:53 AM,71.1,66.9,87,29.94,10.0,ESE,8.1,-,N/A,,Clear,120,2013-10-04 12:53:00
8:53 AM,73.9,66.9,79,29.95,10.0,SE,9.2,-,N/A,,Partly Cloudy,140,2013-10-04 13:53:00
9:53 AM,78.1,66.0,66,29.95,10.0,South,9.2,-,N/A,,Clear,180,2013-10-04 14:53:00
10:53 AM,80.1,64.0,58,29.95,10.0,South,9.2,-,N/A,,Clear,180,2013-10-04 15:53:00
11:53 AM,82.0,63.0,52,29.94,10.0,SSW,5.8,-,N/A,,Clear,200,2013-10-04 16:53:00
12:53 PM,84.9,64.0,49,29.92,10.0,South,8.1,-,N/A,,Clear,190,2013-10-04 17:53:00
1:53 PM,87.1,64.9,48,29.90,10.0,SSW,8.1,-,N/A,,Clear,200,2013-10-04 18:53:00
2:53 PM,84.9,64.0,49,29.89,10.0,SSE,15.0,21.9,N/A,,Partly Cloudy,150,2013-10-04 19:53:00
3:53 PM,86.0,61.0,43,29.88,10.0,South,13.8,21.9,N/A,,Clear,170,2013-10-04 20:53:00
4:53 PM,82.0,59.0,45,29.89,10.0,South,10.4,19.6,N/A,,Clear,180,2013-10-04 21:53:00
5:53 PM,82.0,61.0,49,29.88,10.0,South,6.9,-,N/A,,Clear,170,2013-10-04 22:53:00
6:53 PM,75.9,61.0,60,29.90,10.0,South,5.8,-,N/A,,Clear,170,2013-10-04 23:53:00
7:53 PM,75.0,62.1,64,29.89,10.0,SSE,6.9,-,N/A,,Scattered Clouds,160,2013-10-05 00:53:00
8:53 PM,75.9,66.9,74,29.91,10.0,SSE,9.2,-,N/A,,Scattered Clouds,160,2013-10-05 01:53:00
9:01 PM,75.2,66.2,73,29.95,10.0,SSE,8.1,-,N/A,,Mostly Cloudy,160,2013-10-05 02:01:00
9:25 PM,75.2,68.0,78,29.97,10.0,SSE,9.2,-,N/A,,Overcast,160,2013-10-05 02:25:00
9:50 PM,75.2,68.0,78,29.98,10.0,SSE,8.1,-,N/A,,Overcast,150,2013-10-05 02:50:00
9:53 PM,75.0,68.0,79,29.93,10.0,SSE,8.1,-,N/A,,Overcast,150,2013-10-05 02:53:00
10:53 PM,73.9,68.0,82,29.94,10.0,SSE,6.9,-,N/A,,Mostly Cloudy,150,2013-10-05 03:53:00
11:53 PM,73.9,68.0,82,29.93,10.0,SSE,8.1,-,N/A,,Mostly Cloudy,160,2013-10-05 04:53:00